createdAt,value
2017-10-27T00:00:24.966Z,4.82
2017-10-27T00:02:51.586Z,4.47
2017-10-27T00:05:18.234Z,3.87
2017-10-27T00:07:44.856Z,3.92
2017-10-27T00:10:11.506Z,4.07
2017-10-27T00:12:38.142Z,4.25
2017-10-27T00:15:05.083Z,3.90
2017-10-27T00:17:31.728Z,4.55
2017-10-27T00:19:58.389Z,4.03
2017-10-27T00:22:25.627Z,4.05
2017-10-27T00:24:52.259Z,3.90
2017-10-27T00:27:18.903Z,4.55
2017-10-27T00:29:45.538Z,3.80
2017-10-27T00:32:12.193Z,3.90
2017-10-27T00:34:38.820Z,4.30
2017-10-27T00:37:05.466Z,4.05
2017-10-27T00:39:32.118Z,4.18
2017-10-27T00:41:58.754Z,4.40
2017-10-27T00:44:26.348Z,4.30
2017-10-27T00:46:52.978Z,4.43
2017-10-27T00:49:19.649Z,4.35
2017-10-27T00:51:46.280Z,4.05
2017-10-27T00:54:12.918Z,4.22
2017-10-27T00:56:39.570Z,4.12
2017-10-27T00:59:06.194Z,3.95
2017-10-27T01:01:32.853Z,4.45
2017-10-27T01:03:59.521Z,4.62
2017-10-27T01:06:26.154Z,4.57
2017-10-27T01:08:52.800Z,3.92
2017-10-27T01:11:19.784Z,4.25
2017-10-27T01:13:46.414Z,4.15
2017-10-27T01:16:13.055Z,4.20
2017-10-27T01:18:39.699Z,4.07
2017-10-27T01:21:06.342Z,4.65
2017-10-27T01:23:32.968Z,4.40
2017-10-27T01:25:59.619Z,4.28
2017-10-27T01:28:26.241Z,4.22
2017-10-27T01:30:52.866Z,3.83
2017-10-27T01:33:19.538Z,4.40
2017-10-27T01:35:46.170Z,4.45
2017-10-27T01:38:12.814Z,4.62
2017-10-27T01:40:39.498Z,4.45
2017-10-27T01:43:06.472Z,4.37
2017-10-27T01:45:33.126Z,3.90
2017-10-27T01:48:00.515Z,4.28
2017-10-27T01:50:27.147Z,4.22
2017-10-27T01:52:53.785Z,4.50
2017-10-27T01:55:20.420Z,4.20
2017-10-27T01:57:47.044Z,4.47
2017-10-27T02:00:13.710Z,4.25
2017-10-27T02:02:40.334Z,4.30
2017-10-27T02:05:06.972Z,4.35
2017-10-27T02:07:33.614Z,4.22
2017-10-27T02:10:00.243Z,4.10
2017-10-27T02:12:26.890Z,4.00
2017-10-27T02:14:53.612Z,4.03
2017-10-27T02:17:20.240Z,4.45
2017-10-27T02:19:46.874Z,4.40
2017-10-27T02:22:13.518Z,4.07
2017-10-27T02:24:40.181Z,4.12
2017-10-27T02:27:06.829Z,3.95
2017-10-27T02:29:33.485Z,4.25
2017-10-27T02:32:00.121Z,4.22
2017-10-27T02:34:28.243Z,4.35
2017-10-27T02:36:54.886Z,4.10
2017-10-27T02:39:22.339Z,4.28
2017-10-27T02:41:48.977Z,3.97
2017-10-27T02:44:15.630Z,4.25
2017-10-27T02:46:42.274Z,4.50
2017-10-27T02:49:08.942Z,4.20
2017-10-27T02:51:35.586Z,4.15
2017-10-27T02:54:02.283Z,4.37
2017-10-27T02:56:28.977Z,4.20
2017-10-27T02:58:55.620Z,3.80
2017-10-27T03:01:22.263Z,4.18
2017-10-27T03:03:49.248Z,4.30
2017-10-27T03:06:15.874Z,4.00
2017-10-27T03:08:42.531Z,4.15
2017-10-27T03:11:09.966Z,4.22
2017-10-27T03:13:36.648Z,3.90
2017-10-27T03:16:03.563Z,4.12
2017-10-27T03:18:30.188Z,4.12
2017-10-27T03:21:00.401Z,4.50
2017-10-27T03:23:27.200Z,4.10
2017-10-27T03:25:53.839Z,3.72
2017-10-27T03:28:21.257Z,4.07
2017-10-27T03:30:47.900Z,4.10
2017-10-27T03:33:14.572Z,4.18
2017-10-27T03:35:41.286Z,3.90
2017-10-27T03:38:07.912Z,4.07
2017-10-27T03:40:34.557Z,4.15
2017-10-27T03:43:01.191Z,3.92
2017-10-27T03:45:27.831Z,4.15
2017-10-27T03:47:54.462Z,3.90
2017-10-27T03:50:21.081Z,4.03
2017-10-27T03:52:47.739Z,3.60
2017-10-27T03:55:14.372Z,4.20
2017-10-27T03:57:41.011Z,3.95
2017-10-27T04:00:07.986Z,3.85
2017-10-27T04:02:34.614Z,4.05
2017-10-27T04:05:01.252Z,3.60
2017-10-27T04:07:27.918Z,3.97
2017-10-27T04:09:54.608Z,3.30
2017-10-27T04:12:21.253Z,3.78
2017-10-27T04:14:47.894Z,3.72
2017-10-27T04:17:14.539Z,3.60
2017-10-27T04:19:41.165Z,3.85
2017-10-27T04:22:07.815Z,3.62
2017-10-27T04:24:34.447Z,3.55
2017-10-27T04:27:01.124Z,3.70
2017-10-27T04:29:27.755Z,3.90
2017-10-27T04:31:54.402Z,3.67
2017-10-27T04:34:21.040Z,3.53
2017-10-27T04:36:47.686Z,3.80
2017-10-27T04:39:14.335Z,3.42
2017-10-27T04:41:40.958Z,3.53
2017-10-27T04:44:07.636Z,3.70
2017-10-27T04:46:34.257Z,3.33
2017-10-27T04:49:00.890Z,3.33
2017-10-27T04:51:27.538Z,3.37
2017-10-27T04:53:54.252Z,3.37
2017-10-27T04:56:20.886Z,3.37
2017-10-27T04:58:47.577Z,3.50
2017-10-27T05:01:14.212Z,3.70
2017-10-27T05:03:40.851Z,3.50
2017-10-27T05:06:07.558Z,3.28
2017-10-27T05:08:34.509Z,3.58
2017-10-27T05:11:01.171Z,3.40
2017-10-27T05:13:27.814Z,3.25
2017-10-27T05:15:54.471Z,3.30
2017-10-27T05:18:26.834Z,3.53
2017-10-27T05:20:59.137Z,3.40
2017-10-27T05:23:31.643Z,3.20
2017-10-27T05:25:58.300Z,3.08
2017-10-27T05:28:24.941Z,3.10
2017-10-27T05:30:52.337Z,3.53
2017-10-27T05:33:18.991Z,3.28
2017-10-27T05:35:45.627Z,3.20
2017-10-27T05:38:12.285Z,3.00
2017-10-27T05:40:38.928Z,3.20
2017-10-27T05:43:05.869Z,3.00
2017-10-27T05:45:32.545Z,2.92
2017-10-27T05:47:59.180Z,3.25
2017-10-27T05:50:25.867Z,3.33
2017-10-27T05:52:52.533Z,3.37
2017-10-27T05:55:19.189Z,3.25
2017-10-27T05:57:45.822Z,3.25
2017-10-27T06:00:12.456Z,3.67
2017-10-27T06:02:39.890Z,3.25
2017-10-27T06:05:06.527Z,2.80
2017-10-27T06:07:33.180Z,3.30
2017-10-27T06:09:59.824Z,2.78
2017-10-27T06:12:26.492Z,3.08
2017-10-27T06:14:53.127Z,3.20
2017-10-27T06:17:19.780Z,3.08
2017-10-27T06:19:46.471Z,3.00
2017-10-27T06:22:13.135Z,3.00
2017-10-27T06:24:39.805Z,3.28
2017-10-27T06:27:06.468Z,2.60
2017-10-27T06:29:33.128Z,2.53
2017-10-27T06:31:59.790Z,3.35
2017-10-27T06:34:26.452Z,3.00
2017-10-27T06:36:53.091Z,3.12
2017-10-27T06:39:19.740Z,2.70
2017-10-27T06:41:46.389Z,3.12
2017-10-27T06:44:13.023Z,3.15
2017-10-27T06:46:39.677Z,3.22
2017-10-27T06:49:06.328Z,3.10
2017-10-27T06:51:33.013Z,3.15
2017-10-27T06:53:59.668Z,3.35
2017-10-27T06:56:26.305Z,3.20
2017-10-27T06:58:53.017Z,3.10
2017-10-27T07:01:19.644Z,2.80
2017-10-27T07:03:46.284Z,2.80
2017-10-27T07:06:12.920Z,3.17
2017-10-27T07:08:39.562Z,3.00
2017-10-27T07:11:06.199Z,3.08
2017-10-27T07:13:32.846Z,2.67
2017-10-27T07:15:59.488Z,2.75
2017-10-27T07:18:27.020Z,2.90
2017-10-27T07:20:53.656Z,3.03
2017-10-27T07:23:20.343Z,3.10
2017-10-27T07:25:52.066Z,3.10
2017-10-27T07:28:18.838Z,2.90
2017-10-27T07:30:45.574Z,3.03
2017-10-27T07:33:12.315Z,2.75
2017-10-27T07:35:38.954Z,2.75
2017-10-27T07:38:05.600Z,3.08
2017-10-27T07:40:32.257Z,2.35
2017-10-27T07:42:58.929Z,2.45
2017-10-27T07:45:25.615Z,2.70
2017-10-27T07:47:52.370Z,2.80
2017-10-27T07:50:19.066Z,2.78
2017-10-27T07:52:45.708Z,2.53
2017-10-27T07:55:12.341Z,3.03
2017-10-27T07:57:39.015Z,2.70
2017-10-27T08:00:05.800Z,3.05
2017-10-27T08:02:32.456Z,2.40
2017-10-27T08:04:59.102Z,2.60
2017-10-27T08:07:25.733Z,2.40
2017-10-27T08:09:52.426Z,2.70
2017-10-27T08:12:19.073Z,2.42
2017-10-27T08:14:45.734Z,2.50
2017-10-27T08:17:12.459Z,2.65
2017-10-27T08:19:39.137Z,3.00
2017-10-27T08:22:05.903Z,3.10
2017-10-27T08:24:32.573Z,2.60
2017-10-27T08:26:59.259Z,2.50
2017-10-27T08:29:26.100Z,3.03
2017-10-27T08:31:52.798Z,3.05
2017-10-27T08:34:19.439Z,2.70
2017-10-27T08:36:46.108Z,3.08
2017-10-27T08:39:12.741Z,2.87
2017-10-27T08:41:39.398Z,2.90
2017-10-27T08:44:08.904Z,2.42
2017-10-27T08:46:35.543Z,2.42
2017-10-27T08:49:02.213Z,2.83
2017-10-27T08:51:28.852Z,2.80
2017-10-27T08:53:55.516Z,2.58
2017-10-27T08:56:22.181Z,2.60
2017-10-27T08:58:48.840Z,3.08
2017-10-27T09:01:15.499Z,2.83
2017-10-27T09:03:42.126Z,3.08
2017-10-27T09:06:08.892Z,3.03
2017-10-27T09:08:35.570Z,2.40
2017-10-27T09:11:02.233Z,2.75
2017-10-27T09:13:28.923Z,2.80
2017-10-27T09:15:56.218Z,2.75
2017-10-27T09:18:22.909Z,3.15
2017-10-27T09:20:49.551Z,2.67
2017-10-27T09:23:16.192Z,2.83
2017-10-27T09:25:42.951Z,2.40
2017-10-27T09:28:10.186Z,3.10
2017-10-27T09:30:36.882Z,3.30
2017-10-27T09:33:03.544Z,3.05
2017-10-27T09:38:11.647Z,3.17
2017-10-27T09:40:38.278Z,3.00
2017-10-27T09:43:05.089Z,2.50
2017-10-27T09:45:31.815Z,3.20
2017-10-27T09:47:58.537Z,2.83
2017-10-27T09:50:25.185Z,3.30
2017-10-27T09:52:51.849Z,2.62
2017-10-27T09:55:18.654Z,2.22
2017-10-27T09:57:45.499Z,2.60
2017-10-27T10:00:12.267Z,2.78
2017-10-27T10:02:38.984Z,2.60
2017-10-27T10:05:05.626Z,2.83
2017-10-27T10:07:32.276Z,2.50
2017-10-27T10:09:59.904Z,2.37
2017-10-27T10:12:27.099Z,2.35
2017-10-27T10:14:53.874Z,2.47
2017-10-27T10:17:20.540Z,2.00
2017-10-27T10:19:47.238Z,2.20
2017-10-27T10:22:13.962Z,2.20
2017-10-27T10:24:40.625Z,2.33
2017-10-27T10:27:07.278Z,2.33
2017-10-27T10:29:33.903Z,2.17
2017-10-27T10:32:00.544Z,1.95
2017-10-27T10:34:27.253Z,2.33
2017-10-27T10:36:53.997Z,2.53
2017-10-27T10:39:20.650Z,2.00
2017-10-27T10:41:47.287Z,1.80
2017-10-27T10:44:13.962Z,1.83
2017-10-27T10:46:40.620Z,2.27
2017-10-27T10:49:07.255Z,1.77
2017-10-27T10:51:33.927Z,2.22
2017-10-27T10:54:00.573Z,2.05
2017-10-27T10:56:27.237Z,2.20
2017-10-27T10:58:53.898Z,2.17
2017-10-27T11:01:20.535Z,1.70
2017-10-27T11:03:47.218Z,1.70
2017-10-27T11:06:13.853Z,2.30
2017-10-27T11:08:41.443Z,2.45
2017-10-27T11:11:08.086Z,2.45
2017-10-27T11:13:34.822Z,2.10
2017-10-27T11:16:01.907Z,2.33
2017-10-27T11:18:28.592Z,2.37
2017-10-27T13:16:47.922Z,2.90
2017-10-27T13:19:14.563Z,2.55
2017-10-27T13:21:41.218Z,2.20
2017-10-27T13:24:07.884Z,2.33
2017-10-27T13:26:34.528Z,1.60
2017-10-27T13:29:01.159Z,2.08
2017-10-27T13:31:27.805Z,2.03
2017-10-27T13:33:54.472Z,1.75
2017-10-27T13:36:21.119Z,1.60
2017-10-27T13:38:47.748Z,1.70
2017-10-27T13:41:14.455Z,1.83
2017-10-27T13:43:41.113Z,1.83
2017-10-27T13:46:07.833Z,2.00
2017-10-27T13:48:34.576Z,1.87
2017-10-27T13:51:01.258Z,1.92
2017-10-27T13:53:27.896Z,2.12
2017-10-27T13:55:54.559Z,1.92
2017-10-27T13:58:21.237Z,1.98
2017-10-27T14:00:47.913Z,2.10
2017-10-27T14:03:14.643Z,2.90
2017-10-27T14:05:41.299Z,4.32
2017-10-27T14:08:08.006Z,2.97
2017-10-27T14:10:34.717Z,2.85
2017-10-27T14:13:01.370Z,3.28
2017-10-27T14:15:28.056Z,2.65
2017-10-27T14:17:54.863Z,2.72
2017-10-27T14:20:21.546Z,2.53
2017-10-27T14:22:48.212Z,2.85
2017-10-27T14:25:14.907Z,2.78
2017-10-27T14:27:41.521Z,2.70
2017-10-27T14:30:08.200Z,3.42
2017-10-27T14:32:34.974Z,2.67
2017-10-27T14:35:01.739Z,3.20
2017-10-27T14:37:28.464Z,3.90
2017-10-27T14:39:55.130Z,2.72
2017-10-27T14:42:21.785Z,2.95
2017-10-27T14:44:48.527Z,3.17
2017-10-27T14:47:15.194Z,3.30
2017-10-27T14:49:41.855Z,4.07
2017-10-27T14:52:08.530Z,3.03
2017-10-27T14:54:35.170Z,3.37
2017-10-27T14:57:01.822Z,3.37
2017-10-27T14:59:28.552Z,2.35
2017-10-27T15:01:55.222Z,2.37
2017-10-27T15:04:21.893Z,2.50
2017-10-27T15:06:48.619Z,2.40
2017-10-27T15:09:15.249Z,2.58
2017-10-27T15:11:42.081Z,2.37
2017-10-27T15:14:08.798Z,2.30
2017-10-27T15:16:35.506Z,2.10
2017-10-27T15:19:02.169Z,2.35
2017-10-27T15:21:29.690Z,2.25
2017-10-27T15:23:56.349Z,2.80
2017-10-27T15:26:23.012Z,2.00
2017-10-27T15:28:49.745Z,2.45
2017-10-27T15:31:16.471Z,2.17
2017-10-27T15:33:43.153Z,2.50
2017-10-27T15:36:09.818Z,2.03
2017-10-27T15:38:36.498Z,2.55
2017-10-27T15:41:03.142Z,2.37
2017-10-27T15:43:29.844Z,3.00
2017-10-27T15:45:56.564Z,2.85
2017-10-27T15:48:23.256Z,2.35
2017-10-27T15:50:49.975Z,2.45
2017-10-27T15:53:16.671Z,2.92
2017-10-27T15:55:43.397Z,2.25
2017-10-27T15:58:10.032Z,2.37
2017-10-27T16:00:36.810Z,2.62
2017-10-27T16:03:03.700Z,2.33
2017-10-27T16:05:30.539Z,3.15
2017-10-27T16:07:57.250Z,2.37
2017-10-27T16:10:23.926Z,2.83
2017-10-27T16:12:50.659Z,2.92
2017-10-27T16:15:17.312Z,2.08
2017-10-27T16:17:43.996Z,2.47
2017-10-27T16:20:10.651Z,2.58
2017-10-27T16:22:45.708Z,2.55
2017-10-27T16:25:15.459Z,3.83
2017-10-27T16:27:43.528Z,2.08
2017-10-27T16:30:11.990Z,2.42
2017-10-27T16:32:38.794Z,2.35
2017-10-27T16:35:05.457Z,2.47
2017-10-27T16:37:32.135Z,2.40
2017-10-27T16:39:58.786Z,2.53
2017-10-27T16:42:25.500Z,2.20
2017-10-27T16:44:52.231Z,2.15
2017-10-27T16:47:18.873Z,2.15
2017-10-27T16:49:45.622Z,2.00
2017-10-27T16:52:12.483Z,1.95
2017-10-27T16:54:39.358Z,2.10
2017-10-27T16:57:06.115Z,2.15
2017-10-27T16:59:32.775Z,2.25
2017-10-27T17:01:59.620Z,2.10
2017-10-27T17:04:26.433Z,2.17
2017-10-27T17:06:53.179Z,2.00
2017-10-27T17:09:19.909Z,2.22
2017-10-27T17:11:47.009Z,2.20
2017-10-27T17:14:13.683Z,2.20
2017-10-27T17:16:40.348Z,2.00
2017-10-27T17:19:07.113Z,1.90
2017-10-27T17:21:35.104Z,2.25
2017-10-27T17:24:01.857Z,2.33
2017-10-27T17:26:28.516Z,2.03
2017-10-27T17:28:56.705Z,1.77
2017-10-27T17:31:23.758Z,2.05
2017-10-27T17:33:50.717Z,1.55
2017-10-27T17:36:17.497Z,2.35
2017-10-27T17:38:48.295Z,2.37
2017-10-27T17:41:15.205Z,1.95
2017-10-27T17:43:42.033Z,1.92
2017-10-27T17:46:08.718Z,1.75
2017-10-27T17:48:35.446Z,2.17
2017-10-27T17:51:02.112Z,2.37
2017-10-27T17:53:28.817Z,1.90
2017-10-27T17:55:55.581Z,2.08
2017-10-27T17:58:22.263Z,2.50
2017-10-27T18:00:48.924Z,2.30
2017-10-27T18:03:15.627Z,1.95
2017-10-27T18:05:42.358Z,1.80
2017-10-27T18:08:09.070Z,1.77
2017-10-27T18:10:35.914Z,2.35
2017-10-27T18:13:02.642Z,2.05
2017-10-27T18:15:29.518Z,1.75
2017-10-27T18:17:56.171Z,1.75
2017-10-27T18:20:22.910Z,1.83
2017-10-27T18:22:49.626Z,2.30
2017-10-27T18:25:16.368Z,2.30
2017-10-27T18:27:43.066Z,1.80
2017-10-27T18:30:09.726Z,2.33
2017-10-27T18:32:36.408Z,2.10
2017-10-27T18:35:03.106Z,2.17
2017-10-27T18:37:29.801Z,2.03
2017-10-27T18:39:56.486Z,1.95
2017-10-27T18:42:23.284Z,3.12
2017-10-27T18:44:50.030Z,3.17
2017-10-27T18:47:16.728Z,3.87
2017-10-27T18:49:43.765Z,2.35
2017-10-27T18:52:10.462Z,2.70
2017-10-27T18:54:37.120Z,2.40
2017-10-27T18:57:03.805Z,2.25
2017-10-27T18:59:30.475Z,2.10
2017-10-27T19:01:57.145Z,2.15
2017-10-27T19:04:23.830Z,2.30
2017-10-27T19:06:50.546Z,2.62
2017-10-27T19:09:17.227Z,2.05
2017-10-27T19:11:43.871Z,1.98
2017-10-27T19:14:10.553Z,2.03
2017-10-27T19:16:37.290Z,2.15
2017-10-27T19:19:03.976Z,2.20
2017-10-27T19:21:30.656Z,2.40
2017-10-27T19:23:57.307Z,2.37
2017-10-27T19:26:23.970Z,2.22
2017-10-27T19:28:50.676Z,2.47
2017-10-27T19:31:17.328Z,1.90
2017-10-27T19:33:44.012Z,2.00
2017-10-27T19:36:10.698Z,1.83
2017-10-27T19:38:37.319Z,2.00
2017-10-27T19:41:03.968Z,2.40
2017-10-27T19:43:30.614Z,2.28
2017-10-27T19:45:57.288Z,2.30
2017-10-27T19:48:23.932Z,1.95
2017-10-27T19:50:50.584Z,2.47
2017-10-27T19:53:17.307Z,2.95
2017-10-27T19:55:43.981Z,2.15
2017-10-27T19:58:10.642Z,2.67
2017-10-27T20:00:37.301Z,2.12
2017-10-27T20:03:03.975Z,2.53
2017-10-27T20:05:30.625Z,2.50
2017-10-27T20:07:57.299Z,2.08
2017-10-27T20:10:23.946Z,2.20
2017-10-27T20:12:50.600Z,2.30
2017-10-27T20:15:17.347Z,2.10
2017-10-27T20:17:44.004Z,2.72
2017-10-27T20:20:10.658Z,2.15
2017-10-27T20:22:37.327Z,2.58
2017-10-27T20:25:03.978Z,2.70
2017-10-27T20:27:30.635Z,2.22
2017-10-27T20:29:57.264Z,1.90
2017-10-27T20:32:23.911Z,2.05
2017-10-27T20:34:50.551Z,2.25
2017-10-27T20:37:17.192Z,1.75
2017-10-27T20:39:43.858Z,2.00
2017-10-27T20:42:10.500Z,2.03
2017-10-27T20:44:37.758Z,1.80
2017-10-27T20:47:04.397Z,1.87
2017-10-27T20:49:31.051Z,2.28
2017-10-27T20:51:57.761Z,2.35
2017-10-27T20:54:24.444Z,2.70
2017-10-27T20:56:51.077Z,2.53
2017-10-27T20:59:17.711Z,2.45
2017-10-27T21:01:44.343Z,2.60
2017-10-27T21:04:11.019Z,2.28
2017-10-27T21:06:37.678Z,2.22
2017-10-27T21:09:04.342Z,2.12
2017-10-27T21:11:30.971Z,2.35
2017-10-27T21:13:57.613Z,2.20
2017-10-27T21:16:24.275Z,2.00
2017-10-27T21:18:50.925Z,2.55
2017-10-27T21:21:17.566Z,2.40
2017-10-27T21:23:44.202Z,2.15
2017-10-27T21:26:10.830Z,1.70
2017-10-27T21:28:37.534Z,2.03
2017-10-27T21:31:04.170Z,2.40
2017-10-27T21:33:30.819Z,2.50
2017-10-27T21:35:57.459Z,3.62
2017-10-27T21:38:24.104Z,3.90
2017-10-27T21:40:50.766Z,2.50
2017-10-27T21:43:17.485Z,3.50
2017-10-27T21:45:44.134Z,2.78
2017-10-27T21:48:10.892Z,3.03
2017-10-27T21:50:37.528Z,2.92
2017-10-27T21:53:04.203Z,3.25
2017-10-27T21:55:30.851Z,3.08
2017-10-27T21:57:57.502Z,2.85
2017-10-27T22:00:24.150Z,2.80
2017-10-27T22:02:50.779Z,2.62
2017-10-27T22:05:17.438Z,2.90
2017-10-27T22:07:44.082Z,2.55
2017-10-27T22:10:10.758Z,2.78
2017-10-27T22:12:37.392Z,3.25
2017-10-27T22:15:04.033Z,2.62
2017-10-27T22:17:30.689Z,3.22
2017-10-27T22:19:57.334Z,3.58
2017-10-27T22:22:23.980Z,3.60
2017-10-27T22:24:50.725Z,2.72
2017-10-27T22:27:17.389Z,3.03
2017-10-27T22:29:44.025Z,3.10
2017-10-27T22:32:10.788Z,3.28
2017-10-27T22:34:44.541Z,2.78
2017-10-27T22:37:11.557Z,2.83
2017-10-27T22:39:38.568Z,2.40
2017-10-27T22:42:05.221Z,2.75
2017-10-27T22:44:32.205Z,2.92
2017-10-27T22:46:58.877Z,2.17
2017-10-27T22:49:25.526Z,2.33
2017-10-27T22:51:52.246Z,2.45
2017-10-27T22:54:18.920Z,2.72
2017-10-27T22:56:45.624Z,2.30
2017-10-27T22:59:12.268Z,2.58
2017-10-27T23:01:38.922Z,2.35
2017-10-27T23:04:05.570Z,2.28
2017-10-27T23:06:34.683Z,2.30
2017-10-27T23:09:01.422Z,2.20
2017-10-27T23:11:28.079Z,2.55
2017-10-27T23:13:54.746Z,2.10
2017-10-27T23:16:21.372Z,3.60
2017-10-27T23:18:48.050Z,3.15
2017-10-27T23:21:16.285Z,2.90
2017-10-27T23:23:42.921Z,3.10
2017-10-27T23:26:09.570Z,2.95
2017-10-27T23:28:36.241Z,3.05
2017-10-27T23:31:02.888Z,2.67
2017-10-27T23:33:29.544Z,3.45
2017-10-27T23:35:56.213Z,2.62
2017-10-27T23:38:22.888Z,3.58
2017-10-27T23:40:49.528Z,2.80
2017-10-27T23:43:16.170Z,2.40
2017-10-27T23:45:42.825Z,2.47
2017-10-27T23:48:09.511Z,2.67
2017-10-27T23:50:36.150Z,2.78
2017-10-27T23:53:02.825Z,2.97
2017-10-27T23:55:29.464Z,2.80
2017-10-27T23:57:56.212Z,2.72
